sensor_id;sensor_type;location;lat;lon;timestamp;pressure;altitude;pressure_sealevel;temperature;humidity
77889;BME280;67082;41.704;44.768;2023-07-31T00:02:33;95277.59;;;22.50;67.22
77889;BME280;67082;41.704;44.768;2023-07-31T00:05:27;95277.06;;;22.51;67.89
77889;BME280;67082;41.704;44.768;2023-07-31T00:07:55;95275.97;;;22.54;67.58
77889;BME280;67082;41.704;44.768;2023-07-31T00:10:23;95272.94;;;22.52;67.87
77889;BME280;67082;41.704;44.768;2023-07-31T00:12:52;95265.31;;;22.47;67.49
77889;BME280;67082;41.704;44.768;2023-07-31T00:15:20;95262.28;;;22.45;67.59
77889;BME280;67082;41.704;44.768;2023-07-31T00:17:48;95273.59;;;22.45;67.38
77889;BME280;67082;41.704;44.768;2023-07-31T00:20:16;95268.16;;;22.47;67.57
77889;BME280;67082;41.704;44.768;2023-07-31T00:22:45;95269.25;;;22.44;67.98
77889;BME280;67082;41.704;44.768;2023-07-31T00:25:13;95266.63;;;22.46;68.06
77889;BME280;67082;41.704;44.768;2023-07-31T00:27:41;95257.69;;;22.42;68.27
77889;BME280;67082;41.704;44.768;2023-07-31T00:30:12;95268.16;;;22.47;67.83
77889;BME280;67082;41.704;44.768;2023-07-31T00:32:40;95266.41;;;22.44;68.19
77889;BME280;67082;41.704;44.768;2023-07-31T00:35:09;95264.94;;;22.38;68.49
77889;BME280;67082;41.704;44.768;2023-07-31T00:37:37;95270.97;;;22.47;68.29
77889;BME280;67082;41.704;44.768;2023-07-31T00:40:06;95265.09;;;22.45;68.34
77889;BME280;67082;41.704;44.768;2023-07-31T00:42:35;95267.25;;;22.39;68.29
77889;BME280;67082;41.704;44.768;2023-07-31T00:45:03;95265.41;;;22.42;68.08
77889;BME280;67082;41.704;44.768;2023-07-31T00:47:32;95272.13;;;22.39;68.00
77889;BME280;67082;41.704;44.768;2023-07-31T00:50:00;95268.22;;;22.42;67.67
77889;BME280;67082;41.704;44.768;2023-07-31T00:52:30;95276.63;;;22.47;67.48
77889;BME280;67082;41.704;44.768;2023-07-31T00:54:59;95274.34;;;22.46;67.61
77889;BME280;67082;41.704;44.768;2023-07-31T00:57:30;95262.28;;;22.45;67.49
77889;BME280;67082;41.704;44.768;2023-07-31T01:00:00;95277.00;;;22.38;67.76
77889;BME280;67082;41.704;44.768;2023-07-31T01:02:32;95277.44;;;22.42;67.59
77889;BME280;67082;41.704;44.768;2023-07-31T01:05:01;95265.81;;;22.33;67.20
77889;BME280;67082;41.704;44.768;2023-07-31T01:12:38;95257.53;;;22.22;68.39
77889;BME280;67082;41.704;44.768;2023-07-31T01:15:08;95263.09;;;22.27;68.33
77889;BME280;67082;41.704;44.768;2023-07-31T01:17:41;95266.13;;;22.29;68.33
77889;BME280;67082;41.704;44.768;2023-07-31T01:20:21;95264.16;;;22.24;68.07
77889;BME280;67082;41.704;44.768;2023-07-31T01:31:07;95269.59;;;22.22;68.28
77889;BME280;67082;41.704;44.768;2023-07-31T01:33:38;95275.22;;;22.22;67.40
77889;BME280;67082;41.704;44.768;2023-07-31T01:36:07;95273.25;;;22.17;67.77
77889;BME280;67082;41.704;44.768;2023-07-31T01:38:36;95269.97;;;22.13;67.79
77889;BME280;67082;41.704;44.768;2023-07-31T01:41:04;95258.56;;;22.06;68.08
77889;BME280;67082;41.704;44.768;2023-07-31T01:43:32;95266.94;;;22.11;68.01
77889;BME280;67082;41.704;44.768;2023-07-31T01:46:00;95275.63;;;22.13;67.87
77889;BME280;67082;41.704;44.768;2023-07-31T01:48:28;95265.09;;;22.14;67.56
77889;BME280;67082;41.704;44.768;2023-07-31T01:51:00;95263.06;;;22.14;67.76
77889;BME280;67082;41.704;44.768;2023-07-31T01:53:31;95266.16;;;22.11;67.70
77889;BME280;67082;41.704;44.768;2023-07-31T01:55:59;95262.25;;;22.01;67.78
77889;BME280;67082;41.704;44.768;2023-07-31T01:58:27;95266.44;;;21.94;68.13
77889;BME280;67082;41.704;44.768;2023-07-31T02:00:56;95267.53;;;21.91;68.57
77889;BME280;67082;41.704;44.768;2023-07-31T02:03:24;95275.75;;;21.89;69.01
77889;BME280;67082;41.704;44.768;2023-07-31T02:05:54;95270.34;;;21.91;68.73
77889;BME280;67082;41.704;44.768;2023-07-31T02:08:25;95264.72;;;21.91;69.11
77889;BME280;67082;41.704;44.768;2023-07-31T02:10:53;95258.88;;;22.02;68.85
77889;BME280;67082;41.704;44.768;2023-07-31T02:13:22;95267.41;;;22.15;68.36
77889;BME280;67082;41.704;44.768;2023-07-31T02:15:50;95273.25;;;22.17;68.52
77889;BME280;67082;41.704;44.768;2023-07-31T02:18:19;95274.34;;;22.14;68.48
77889;BME280;67082;41.704;44.768;2023-07-31T02:20:51;95269.53;;;22.09;68.42
77889;BME280;67082;41.704;44.768;2023-07-31T02:23:19;95268.63;;;22.01;68.46
77889;BME280;67082;41.704;44.768;2023-07-31T02:25:47;95270.78;;;21.95;68.92
77889;BME280;67082;41.704;44.768;2023-07-31T02:28:16;95266.66;;;21.96;68.67
77889;BME280;67082;41.704;44.768;2023-07-31T02:30:45;95265.13;;;21.95;68.88
77889;BME280;67082;41.704;44.768;2023-07-31T02:33:17;95257.97;;;21.94;69.08
77889;BME280;67082;41.704;44.768;2023-07-31T02:35:48;95255.38;;;21.96;69.28
77889;BME280;67082;41.704;44.768;2023-07-31T02:38:16;95270.16;;;22.02;68.84
77889;BME280;67082;41.704;44.768;2023-07-31T02:40:44;95267.03;;;22.06;68.98
77889;BME280;67082;41.704;44.768;2023-07-31T02:43:12;95266.72;;;22.09;68.71
77889;BME280;67082;41.704;44.768;2023-07-31T02:45:40;95270.75;;;22.14;68.78
77889;BME280;67082;41.704;44.768;2023-07-31T02:48:11;95282.03;;;22.14;68.66
77889;BME280;67082;41.704;44.768;2023-07-31T02:50:39;95286.59;;;22.17;68.32
77889;BME280;67082;41.704;44.768;2023-07-31T02:53:07;95282.25;;;22.16;68.40
77889;BME280;67082;41.704;44.768;2023-07-31T02:55:35;95284.00;;;22.19;68.31
77889;BME280;67082;41.704;44.768;2023-07-31T02:58:04;95285.97;;;22.24;68.38
77889;BME280;67082;41.704;44.768;2023-07-31T03:00:32;95281.94;;;22.19;68.56
77889;BME280;67082;41.704;44.768;2023-07-31T03:03:01;95281.41;;;22.21;68.61
77889;BME280;67082;41.704;44.768;2023-07-31T03:05:29;95293.16;;;22.25;68.46
77889;BME280;67082;41.704;44.768;2023-07-31T03:07:58;95294.66;;;22.26;68.35
77889;BME280;67082;41.704;44.768;2023-07-31T03:10:26;95292.69;;;22.21;68.37
77889;BME280;67082;41.704;44.768;2023-07-31T03:12:55;95293.69;;;22.23;68.54
77889;BME280;67082;41.704;44.768;2023-07-31T03:15:23;95293.59;;;22.29;68.37
77889;BME280;67082;41.704;44.768;2023-07-31T03:17:51;95297.84;;;22.35;67.75
77889;BME280;67082;41.704;44.768;2023-07-31T03:20:19;95287.66;;;22.32;67.78
77889;BME280;67082;41.704;44.768;2023-07-31T03:22:48;95287.53;;;22.38;67.90
77889;BME280;67082;41.704;44.768;2023-07-31T03:25:16;95281.56;;;22.41;67.59
77889;BME280;67082;41.704;44.768;2023-07-31T03:27:46;95286.78;;;22.37;67.28
77889;BME280;67082;41.704;44.768;2023-07-31T03:30:14;95290.69;;;22.34;67.12
77889;BME280;67082;41.704;44.768;2023-07-31T03:32:42;95291.22;;;22.33;67.21
77889;BME280;67082;41.704;44.768;2023-07-31T03:35:10;95294.81;;;22.33;66.94
77889;BME280;67082;41.704;44.768;2023-07-31T03:37:41;95290.81;;;22.42;66.97
77889;BME280;67082;41.704;44.768;2023-07-31T03:40:09;95288.53;;;22.40;67.10
77889;BME280;67082;41.704;44.768;2023-07-31T03:42:38;95290.97;;;22.49;67.22
77889;BME280;67082;41.704;44.768;2023-07-31T03:45:06;95301.38;;;22.54;67.16
77889;BME280;67082;41.704;44.768;2023-07-31T03:47:35;95294.88;;;22.59;67.27
77889;BME280;67082;41.704;44.768;2023-07-31T03:50:03;95291.63;;;22.55;66.90
77889;BME280;67082;41.704;44.768;2023-07-31T03:52:32;95295.97;;;22.56;66.74
77889;BME280;67082;41.704;44.768;2023-07-31T03:55:00;95296.63;;;22.62;66.54
77889;BME280;67082;41.704;44.768;2023-07-31T03:57:30;95297.94;;;22.61;66.46
77889;BME280;67082;41.704;44.768;2023-07-31T04:00:00;95296.63;;;22.62;66.39
77889;BME280;67082;41.704;44.768;2023-07-31T04:02:39;95302.50;;;22.64;66.16
77889;BME280;67082;41.704;44.768;2023-07-31T04:05:08;95300.13;;;22.68;66.21
77889;BME280;67082;41.704;44.768;2023-07-31T04:07:36;95298.50;;;22.73;66.12
77889;BME280;67082;41.704;44.768;2023-07-31T04:10:06;95289.63;;;22.82;65.89
77889;BME280;67082;41.704;44.768;2023-07-31T04:12:36;95298.41;;;22.91;66.07
77889;BME280;67082;41.704;44.768;2023-07-31T04:15:05;95293.63;;;22.99;65.53
77889;BME280;67082;41.704;44.768;2023-07-31T04:17:33;95301.56;;;23.01;65.41
77889;BME280;67082;41.704;44.768;2023-07-31T04:25:10;95305.38;;;23.03;65.53
77889;BME280;67082;41.704;44.768;2023-07-31T04:33:47;95302.13;;;23.12;64.93
77889;BME280;67082;41.704;44.768;2023-07-31T04:36:15;95301.91;;;23.10;65.12
77889;BME280;67082;41.704;44.768;2023-07-31T04:38:44;95299.50;;;23.14;65.08
77889;BME280;67082;41.704;44.768;2023-07-31T04:41:12;95313.97;;;23.11;65.11
77889;BME280;67082;41.704;44.768;2023-07-31T04:43:40;95312.66;;;23.12;65.36
77889;BME280;67082;41.704;44.768;2023-07-31T04:46:09;95306.81;;;23.10;65.09
77889;BME280;67082;41.704;44.768;2023-07-31T04:48:37;95315.41;;;23.17;65.17
77889;BME280;67082;41.704;44.768;2023-07-31T04:51:05;95312.34;;;23.15;65.26
77889;BME280;67082;41.704;44.768;2023-07-31T04:53:33;95312.03;;;23.19;65.03
77889;BME280;67082;41.704;44.768;2023-07-31T04:56:02;95321.28;;;23.19;64.98
77889;BME280;67082;41.704;44.768;2023-07-31T04:58:33;95311.72;;;23.22;64.92
77889;BME280;67082;41.704;44.768;2023-07-31T05:01:01;95310.72;;;23.20;64.75
77889;BME280;67082;41.704;44.768;2023-07-31T05:03:29;95311.72;;;23.22;64.35
77889;BME280;67082;41.704;44.768;2023-07-31T05:05:57;95310.19;;;23.21;64.89
77889;BME280;67082;41.704;44.768;2023-07-31T05:08:25;95306.69;;;23.28;64.57
77889;BME280;67082;41.704;44.768;2023-07-31T05:10:54;95309.44;;;23.21;64.64
77889;BME280;67082;41.704;44.768;2023-07-31T05:13:22;95313.22;;;23.23;64.92
77889;BME280;67082;41.704;44.768;2023-07-31T05:15:50;95316.63;;;23.22;65.16
77889;BME280;67082;41.704;44.768;2023-07-31T05:18:18;95317.59;;;23.24;64.95
77889;BME280;67082;41.704;44.768;2023-07-31T05:20:46;95315.97;;;23.29;65.18
77889;BME280;67082;41.704;44.768;2023-07-31T05:23:14;95316.72;;;23.29;64.83
77889;BME280;67082;41.704;44.768;2023-07-31T05:25:43;95316.06;;;23.23;65.22
77889;BME280;67082;41.704;44.768;2023-07-31T05:28:12;95312.16;;;23.26;65.47
77889;BME280;67082;41.704;44.768;2023-07-31T05:30:40;95321.41;;;23.27;65.94
77889;BME280;67082;41.704;44.768;2023-07-31T05:33:08;95317.16;;;23.33;64.93
77889;BME280;67082;41.704;44.768;2023-07-31T05:35:40;95319.56;;;23.29;65.24
77889;BME280;67082;41.704;44.768;2023-07-31T05:38:08;95319.22;;;23.33;65.17
77889;BME280;67082;41.704;44.768;2023-07-31T05:40:37;95312.81;;;23.32;64.89
77889;BME280;67082;41.704;44.768;2023-07-31T05:43:05;95322.38;;;23.29;65.27
77889;BME280;67082;41.704;44.768;2023-07-31T05:45:36;95324.22;;;23.27;65.05
77889;BME280;67082;41.704;44.768;2023-07-31T05:48:04;95328.91;;;23.24;65.19
77889;BME280;67082;41.704;44.768;2023-07-31T05:50:33;95327.81;;;23.27;64.90
77889;BME280;67082;41.704;44.768;2023-07-31T05:53:02;95321.81;;;23.31;65.30
77889;BME280;67082;41.704;44.768;2023-07-31T05:55:30;95321.28;;;23.32;65.11
77889;BME280;67082;41.704;44.768;2023-07-31T05:57:58;95321.28;;;23.32;65.01
77889;BME280;67082;41.704;44.768;2023-07-31T06:00:28;95327.72;;;23.33;64.56
77889;BME280;67082;41.704;44.768;2023-07-31T06:02:56;95322.81;;;23.33;64.77
77889;BME280;67082;41.704;44.768;2023-07-31T06:05:25;95333.03;;;23.36;64.71
77889;BME280;67082;41.704;44.768;2023-07-31T06:07:54;95325.19;;;23.42;64.89
77889;BME280;67082;41.704;44.768;2023-07-31T06:10:24;95324.66;;;23.44;64.71
77889;BME280;67082;41.704;44.768;2023-07-31T06:12:52;95324.88;;;23.46;64.46
77889;BME280;67082;41.704;44.768;2023-07-31T06:15:21;95323.34;;;23.45;64.08
77889;BME280;67082;41.704;44.768;2023-07-31T06:17:49;95317.56;;;23.50;63.61
77889;BME280;67082;41.704;44.768;2023-07-31T06:20:17;95322.56;;;23.44;63.53
77889;BME280;67082;41.704;44.768;2023-07-31T06:22:46;95312.16;;;23.52;64.13
77889;BME280;67082;41.704;44.768;2023-07-31T06:25:14;95318.66;;;23.60;63.62
77889;BME280;67082;41.704;44.768;2023-07-31T06:27:42;95325.06;;;23.61;63.77
77889;BME280;67082;41.704;44.768;2023-07-31T06:30:11;95321.56;;;23.68;63.00
77889;BME280;67082;41.704;44.768;2023-07-31T06:32:39;95314.06;;;23.70;62.92
77889;BME280;67082;41.704;44.768;2023-07-31T06:35:09;95323.31;;;23.71;62.53
77889;BME280;67082;41.704;44.768;2023-07-31T06:37:36;95320.47;;;23.71;62.54
77889;BME280;67082;41.704;44.768;2023-07-31T06:40:08;95319.72;;;23.57;62.54
77889;BME280;67082;41.704;44.768;2023-07-31T06:42:36;95316.47;;;23.66;62.52
77889;BME280;67082;41.704;44.768;2023-07-31T06:45:05;95317.22;;;23.67;62.39
77889;BME280;67082;41.704;44.768;2023-07-31T06:47:33;95318.41;;;23.71;62.85
77889;BME280;67082;41.704;44.768;2023-07-31T06:50:02;95318.28;;;23.77;62.14
77889;BME280;67082;41.704;44.768;2023-07-31T06:52:31;95325.16;;;23.81;61.77
77889;BME280;67082;41.704;44.768;2023-07-31T06:55:03;95325.34;;;23.83;61.93
77889;BME280;67082;41.704;44.768;2023-07-31T06:57:31;95329.06;;;23.78;61.48
77889;BME280;67082;41.704;44.768;2023-07-31T07:00:00;95323.19;;;23.76;61.43
77889;BME280;67082;41.704;44.768;2023-07-31T07:02:31;95326.22;;;23.78;61.78
77889;BME280;67082;41.704;44.768;2023-07-31T07:05:00;95323.41;;;23.78;61.59
77889;BME280;67082;41.704;44.768;2023-07-31T07:07:29;95324.38;;;23.81;62.08
77889;BME280;67082;41.704;44.768;2023-07-31T07:09:57;95322.50;;;23.83;62.07
77889;BME280;67082;41.704;44.768;2023-07-31T07:12:30;95335.81;;;23.88;61.98
77889;BME280;67082;41.704;44.768;2023-07-31T07:15:00;95325.78;;;23.87;62.00
77889;BME280;67082;41.704;44.768;2023-07-31T07:17:32;95331.78;;;23.97;61.76
77889;BME280;67082;41.704;44.768;2023-07-31T07:20:01;95328.72;;;23.95;62.01
77889;BME280;67082;41.704;44.768;2023-07-31T07:22:31;95326.22;;;23.91;61.91
77889;BME280;67082;41.704;44.768;2023-07-31T07:25:00;95324.38;;;23.94;62.42
77889;BME280;67082;41.704;44.768;2023-07-31T07:27:30;95328.06;;;24.02;62.51
77889;BME280;67082;41.704;44.768;2023-07-31T07:29:58;95335.09;;;24.08;62.53
77889;BME280;67082;41.704;44.768;2023-07-31T07:32:26;95331.53;;;23.95;62.32
77889;BME280;67082;41.704;44.768;2023-07-31T07:34:55;95335.13;;;23.95;62.20
77889;BME280;67082;41.704;44.768;2023-07-31T07:37:23;95329.28;;;23.93;62.45
77889;BME280;67082;41.704;44.768;2023-07-31T07:39:52;95331.88;;;24.04;62.31
77889;BME280;67082;41.704;44.768;2023-07-31T07:42:20;95323.38;;;24.04;62.01
77889;BME280;67082;41.704;44.768;2023-07-31T07:44:48;95329.78;;;24.05;62.23
77889;BME280;67082;41.704;44.768;2023-07-31T07:47:16;95325.72;;;24.13;61.79
77889;BME280;67082;41.704;44.768;2023-07-31T07:49:44;95322.47;;;24.09;61.74
77889;BME280;67082;41.704;44.768;2023-07-31T07:52:19;95326.34;;;24.19;61.67
77889;BME280;67082;41.704;44.768;2023-07-31T07:54:47;95321.31;;;24.25;61.49
77889;BME280;67082;41.704;44.768;2023-07-31T07:57:15;95323.81;;;24.29;61.60
77889;BME280;67082;41.704;44.768;2023-07-31T07:59:44;95327.75;;;24.26;61.85
77889;BME280;67082;41.704;44.768;2023-07-31T08:02:12;95319.81;;;24.24;61.47
77889;BME280;67082;41.704;44.768;2023-07-31T08:04:40;95326.88;;;24.31;61.78
77889;BME280;67082;41.704;44.768;2023-07-31T08:07:11;95324.78;;;24.31;61.35
77889;BME280;67082;41.704;44.768;2023-07-31T08:09:40;95327.88;;;24.41;61.46
77889;BME280;67082;41.704;44.768;2023-07-31T08:12:08;95323.00;;;24.41;61.35
77889;BME280;67082;41.704;44.768;2023-07-31T08:14:36;95319.28;;;24.46;61.08
77889;BME280;67082;41.704;44.768;2023-07-31T08:17:04;95314.03;;;24.50;61.12
77889;BME280;67082;41.704;44.768;2023-07-31T08:19:33;95314.22;;;24.52;60.72
77889;BME280;67082;41.704;44.768;2023-07-31T08:22:01;95309.53;;;24.55;60.74
77889;BME280;67082;41.704;44.768;2023-07-31T08:24:30;95318.16;;;24.49;60.57
77889;BME280;67082;41.704;44.768;2023-07-31T08:26:58;95308.00;;;24.54;60.91
77889;BME280;67082;41.704;44.768;2023-07-31T08:29:26;95307.00;;;24.64;60.55
77889;BME280;67082;41.704;44.768;2023-07-31T08:31:54;95313.47;;;24.72;59.97
77889;BME280;67082;41.704;44.768;2023-07-31T08:34:22;95309.53;;;24.75;59.96
77889;BME280;67082;41.704;44.768;2023-07-31T08:36:50;95308.56;;;24.73;60.06
77889;BME280;67082;41.704;44.768;2023-07-31T08:39:18;95306.00;;;24.82;60.50
77889;BME280;67082;41.704;44.768;2023-07-31T08:41:47;95302.44;;;24.82;60.17
77889;BME280;67082;41.704;44.768;2023-07-31T08:44:16;95300.53;;;24.84;60.33
77889;BME280;67082;41.704;44.768;2023-07-31T08:46:46;95301.16;;;24.90;59.45
77889;BME280;67082;41.704;44.768;2023-07-31T08:49:17;95295.88;;;24.94;60.10
77889;BME280;67082;41.704;44.768;2023-07-31T08:51:46;95299.69;;;24.97;59.81
77889;BME280;67082;41.704;44.768;2023-07-31T08:54:18;95298.25;;;25.03;59.53
77889;BME280;67082;41.704;44.768;2023-07-31T08:56:46;95302.78;;;25.06;59.89
77889;BME280;67082;41.704;44.768;2023-07-31T08:59:15;95301.13;;;25.11;58.85
77889;BME280;67082;41.704;44.768;2023-07-31T09:01:50;95301.47;;;25.07;58.49
77889;BME280;67082;41.704;44.768;2023-07-31T09:04:25;95297.09;;;25.06;58.90
77889;BME280;67082;41.704;44.768;2023-07-31T09:06:57;95305.84;;;25.08;59.52
77889;BME280;67082;41.704;44.768;2023-07-31T09:09:27;95304.16;;;25.13;59.31
77889;BME280;67082;41.704;44.768;2023-07-31T09:11:56;95304.75;;;25.19;58.99
77889;BME280;67082;41.704;44.768;2023-07-31T09:14:26;95297.56;;;25.18;58.94
77889;BME280;67082;41.704;44.768;2023-07-31T09:16:55;95286.44;;;25.20;58.61
77889;BME280;67082;41.704;44.768;2023-07-31T09:19:32;95292.19;;;25.27;58.49
77889;BME280;67082;41.704;44.768;2023-07-31T09:22:01;95291.03;;;25.30;58.83
77889;BME280;67082;41.704;44.768;2023-07-31T09:24:31;95296.16;;;25.32;58.90
77889;BME280;67082;41.704;44.768;2023-07-31T09:27:01;95293.56;;;25.34;59.04
77889;BME280;67082;41.704;44.768;2023-07-31T09:29:30;95288.31;;;25.45;58.63
77889;BME280;67082;41.704;44.768;2023-07-31T09:32:16;95293.84;;;25.51;58.15
77889;BME280;67082;41.704;44.768;2023-07-31T09:34:47;95287.03;;;25.54;57.57
77889;BME280;67082;41.704;44.768;2023-07-31T09:37:16;95277.75;;;25.53;57.74
77889;BME280;67082;41.704;44.768;2023-07-31T09:39:47;95285.16;;;25.56;57.82
77889;BME280;67082;41.704;44.768;2023-07-31T09:42:25;95285.34;;;25.58;58.17
77889;BME280;67082;41.704;44.768;2023-07-31T09:44:53;95274.19;;;25.60;57.51
77889;BME280;67082;41.704;44.768;2023-07-31T09:47:24;95283.09;;;25.64;57.77
77889;BME280;67082;41.704;44.768;2023-07-31T09:49:54;95278.59;;;25.69;57.66
77889;BME280;67082;41.704;44.768;2023-07-31T09:52:22;95273.69;;;25.77;57.14
77889;BME280;67082;41.704;44.768;2023-07-31T09:54:50;95264.06;;;25.80;57.02
77889;BME280;67082;41.704;44.768;2023-07-31T09:57:21;95268.44;;;25.88;57.07
77889;BME280;67082;41.704;44.768;2023-07-31T09:59:51;95272.25;;;25.91;56.42
77889;BME280;67082;41.704;44.768;2023-07-31T10:02:21;95280.41;;;25.94;56.22
77889;BME280;67082;41.704;44.768;2023-07-31T10:07:49;95260.41;;;26.22;56.21
77889;BME280;67082;41.704;44.768;2023-07-31T10:10:21;95268.31;;;26.01;56.12
77889;BME280;67082;41.704;44.768;2023-07-31T10:12:51;95256.22;;;26.08;56.33
77889;BME280;67082;41.704;44.768;2023-07-31T10:15:21;95256.41;;;26.10;55.84
77889;BME280;67082;41.704;44.768;2023-07-31T10:17:50;95252.25;;;26.11;55.56
77889;BME280;67082;41.704;44.768;2023-07-31T10:20:18;95254.34;;;26.18;55.42
77889;BME280;67082;41.704;44.768;2023-07-31T10:22:47;95240.88;;;26.19;55.79
77889;BME280;67082;41.704;44.768;2023-07-31T10:25:18;95250.78;;;26.33;54.63
77889;BME280;67082;41.704;44.768;2023-07-31T10:27:49;95246.97;;;26.30;54.45
77889;BME280;67082;41.704;44.768;2023-07-31T10:30:18;95243.19;;;26.35;54.77
77889;BME280;67082;41.704;44.768;2023-07-31T10:32:48;95243.56;;;26.32;55.29
77889;BME280;67082;41.704;44.768;2023-07-31T10:35:18;95234.84;;;26.30;55.36
77889;BME280;67082;41.704;44.768;2023-07-31T10:37:49;95236.19;;;26.36;55.68
77889;BME280;67082;41.704;44.768;2023-07-31T10:40:24;95231.63;;;26.33;55.37
77889;BME280;67082;41.704;44.768;2023-07-31T10:42:53;95223.88;;;26.34;55.38
77889;BME280;67082;41.704;44.768;2023-07-31T10:48:14;95214.03;;;26.35;55.36
77889;BME280;67082;41.704;44.768;2023-07-31T10:50:50;95215.34;;;26.41;55.44
77889;BME280;67082;41.704;44.768;2023-07-31T10:53:28;95203.78;;;26.47;55.43
77889;BME280;67082;41.704;44.768;2023-07-31T10:56:04;95216.28;;;26.51;55.07
77889;BME280;67082;41.704;44.768;2023-07-31T10:58:33;95210.03;;;26.45;54.69
77889;BME280;67082;41.704;44.768;2023-07-31T11:01:04;95204.16;;;26.43;55.14
77889;BME280;67082;41.704;44.768;2023-07-31T11:03:45;95199.06;;;26.49;54.31
77889;BME280;67082;41.704;44.768;2023-07-31T11:06:15;95196.59;;;26.38;54.67
77889;BME280;67082;41.704;44.768;2023-07-31T11:08:48;95194.69;;;26.48;54.25
77889;BME280;67082;41.704;44.768;2023-07-31T11:11:19;95187.50;;;26.47;53.92
77889;BME280;67082;41.704;44.768;2023-07-31T11:13:49;95191.13;;;26.55;54.61
77889;BME280;67082;41.704;44.768;2023-07-31T11:16:24;95181.66;;;26.60;55.25
77889;BME280;67082;41.704;44.768;2023-07-31T11:18:53;95179.38;;;26.66;54.86
77889;BME280;67082;41.704;44.768;2023-07-31T11:21:25;95182.41;;;26.61;54.04
77889;BME280;67082;41.704;44.768;2023-07-31T11:23:57;95173.13;;;26.60;53.78
77889;BME280;67082;41.704;44.768;2023-07-31T11:26:28;95175.78;;;26.66;54.27
77889;BME280;67082;41.704;44.768;2023-07-31T11:28:56;95174.63;;;26.69;53.92
77889;BME280;67082;41.704;44.768;2023-07-31T11:31:24;95171.59;;;26.67;53.32
77889;BME280;67082;41.704;44.768;2023-07-31T11:34:05;95168.56;;;26.72;53.41
77889;BME280;67082;41.704;44.768;2023-07-31T11:36:33;95164.75;;;26.77;53.26
77889;BME280;67082;41.704;44.768;2023-07-31T11:39:12;95143.34;;;26.69;51.86
77889;BME280;67082;41.704;44.768;2023-07-31T11:41:40;95158.13;;;26.82;51.03
77889;BME280;67082;41.704;44.768;2023-07-31T11:44:12;95159.81;;;26.85;51.53
77889;BME280;67082;41.704;44.768;2023-07-31T11:46:56;95154.13;;;26.85;51.17
77889;BME280;67082;41.704;44.768;2023-07-31T11:49:25;95154.66;;;26.91;51.64
77889;BME280;67082;41.704;44.768;2023-07-31T11:51:53;95159.44;;;26.89;51.21
77889;BME280;67082;41.704;44.768;2023-07-31T11:54:22;95155.06;;;26.88;51.19
77889;BME280;67082;41.704;44.768;2023-07-31T11:56:51;95147.88;;;26.87;51.68
77889;BME280;67082;41.704;44.768;2023-07-31T11:59:19;95151.09;;;26.91;51.25
77889;BME280;67082;41.704;44.768;2023-07-31T12:01:47;95150.69;;;26.94;51.43
77889;BME280;67082;41.704;44.768;2023-07-31T12:04:21;95149.91;;;27.01;51.24
77889;BME280;67082;41.704;44.768;2023-07-31T12:06:52;95146.66;;;27.05;51.32
77889;BME280;67082;41.704;44.768;2023-07-31T12:09:25;95140.41;;;27.14;52.01
77889;BME280;67082;41.704;44.768;2023-07-31T12:11:54;95133.94;;;27.13;51.02
77889;BME280;67082;41.704;44.768;2023-07-31T12:14:27;95134.72;;;27.14;51.11
77889;BME280;67082;41.704;44.768;2023-07-31T12:17:00;95131.28;;;27.15;50.92
77889;BME280;67082;41.704;44.768;2023-07-31T12:19:29;95131.66;;;27.19;51.15
77889;BME280;67082;41.704;44.768;2023-07-31T12:21:59;95134.72;;;27.21;51.11
77889;BME280;67082;41.704;44.768;2023-07-31T12:24:29;95129.75;;;27.22;50.58
77889;BME280;67082;41.704;44.768;2023-07-31T12:26:57;95130.16;;;27.18;50.55
77889;BME280;67082;41.704;44.768;2023-07-31T12:29:34;95127.88;;;27.17;50.32
77889;BME280;67082;41.704;44.768;2023-07-31T12:32:24;95114.22;;;27.15;49.99
77889;BME280;67082;41.704;44.768;2023-07-31T12:34:53;95113.31;;;27.05;50.91
77889;BME280;67082;41.704;44.768;2023-07-31T12:37:21;95120.72;;;27.01;51.11
77889;BME280;67082;41.704;44.768;2023-07-31T12:39:49;95119.97;;;27.00;51.44
77889;BME280;67082;41.704;44.768;2023-07-31T12:42:17;95126.75;;;27.05;51.15
77889;BME280;67082;41.704;44.768;2023-07-31T12:44:46;95114.66;;;27.04;51.36
77889;BME280;67082;41.704;44.768;2023-07-31T12:47:14;95118.63;;;27.01;51.65
77889;BME280;67082;41.704;44.768;2023-07-31T12:49:43;95109.16;;;26.99;51.66
77889;BME280;67082;41.704;44.768;2023-07-31T12:52:11;95109.53;;;27.03;51.69
77889;BME280;67082;41.704;44.768;2023-07-31T12:54:39;95109.69;;;27.05;51.25
77889;BME280;67082;41.704;44.768;2023-07-31T12:57:07;95099.81;;;27.06;51.00
77889;BME280;67082;41.704;44.768;2023-07-31T12:59:36;95105.72;;;27.08;50.95
77889;BME280;67082;41.704;44.768;2023-07-31T13:02:04;95105.16;;;27.09;51.49
77889;BME280;67082;41.704;44.768;2023-07-31T13:04:33;95108.00;;;27.09;51.59
77889;BME280;67082;41.704;44.768;2023-07-31T13:07:01;95105.16;;;27.09;50.55
77889;BME280;67082;41.704;44.768;2023-07-31T13:09:29;95094.88;;;27.14;51.23
77889;BME280;67082;41.704;44.768;2023-07-31T13:11:57;95097.56;;;27.12;50.99
77889;BME280;67082;41.704;44.768;2023-07-31T13:14:25;95096.97;;;27.06;51.65
77889;BME280;67082;41.704;44.768;2023-07-31T13:16:53;95096.97;;;27.06;51.28
77889;BME280;67082;41.704;44.768;2023-07-31T13:19:22;95096.25;;;27.05;51.25
77889;BME280;67082;41.704;44.768;2023-07-31T13:21:50;95101.75;;;27.03;51.00
77889;BME280;67082;41.704;44.768;2023-07-31T13:24:18;95100.78;;;27.08;51.28
77889;BME280;67082;41.704;44.768;2023-07-31T13:26:46;95096.41;;;27.07;51.54
77889;BME280;67082;41.704;44.768;2023-07-31T13:29:15;95097.56;;;27.12;50.99
77889;BME280;67082;41.704;44.768;2023-07-31T13:31:43;95102.47;;;27.11;51.76
77889;BME280;67082;41.704;44.768;2023-07-31T13:34:11;95107.00;;;27.14;51.75